map of ETHS home
ETHS - Airport
Location
City:  Faßberg, Lower Saxony, Germany
ICAO:ETHS

Details
Type:Airport (Flugplatz, Airfield)
Use:Military
Latitude:52°55'10"N (52.919367)
Longitude:10°11'02"E (10.183850)
Elevation:245 ft (75 m)
Variation:2.99°E (WMM2015 magnetic declination)
0.14° annual change
Runways:3
Longest:8005 × 95 ft (2440 × 29 m), paved

Time
Time Zone:UTC+1 (DST+2)
Local Time:

Weather
METAR:ETHS 220420Z 18002KT 9999 SCT009 SCT020 M04/M06 Q1013 BLU+

Related Locations
Nearby:
Farthest:CHT: 11733 mi / 18882 km
Waitangi [Tuuta], CIT, NZ

Find:

   beyond  
but within

Other Information
Maps:
NOTAMs:
Links:
Sources:

  
  • flag of Germany
  • flag of Lower Saxony
  

Sectional Chart

Flight Planning
at skyvector.com

Satellite Image

Google Maps Satellite view

 

Copyright © 2004-2019 Karl L. Swartz. All rights reserved.
The Great Circle Mapper name and logo are trademarks of the Great Circle Mapper.
All other trademarks mentioned herein belong to their respective owners.
Please see credits for attibutions and further copyright information.

  Follow gcmap on Facebook Follow gcmap on Twitter Follow gcmap on Google+ GCmap on LinkedIn

hCard Microformat

Geo Microformat